Logo AVAMET
Benvolgut visitant, si us plau, ingressa Recuperar contrasenya

Torrevella centre

Dades diàries. Acumulats / Últims 30 dies disponibles

Data Temperatura (°C) Humitat rel. (%) Pressió rel. (hPa) Vent (km/h) Precipitació
Mínima Mitjana Màxima Amplitud
tèrmica
Mínima Mitjana Màxima Mínima Mitjana Màxima Predom. Mitjana Ràfega
màxima
Total
(mm)
Índex-n
Mínima Mitjana Màxima Mínima Mitjana Màxima n
0 a 1
P0 max
mm 5'
Dades mensuals acumulades fins l'últim dia disponible
07/2019 23,7 23,8 23,8 27,4 29,4 30,0 30,6 6,9 64 74 86 1.013 1.015 1.017   2,6 22,5 0,0
Dades anuals acumulades fins l'últim dia disponible
2019 4,9 11,9 23,8 15,1 13,1 19,4 30,6 25,7 22 69 97 997 1.020 1.036   2,6 56,3 159,4
Últims 30 dies disponibles
18-07-2019 23,7     27,2     30,6 6,9 64 75 86 1.015 1.015 1.017 S 1,0 14,5 0,0
17-07-2019 23,8     27,5     29,4 5,6 66 73 78 1.013 1.014 1.016 ESE 4,2 22,5 0,0
11-05-2019 21,3     22,7     27,9 6,6 51 68 79 1.016 1.017 1.019 ESE 0,0 9,7 0,0
10-05-2019 19,0     22,6     27,1 8,1 59 74 92 1.014 1.015 1.016 SSE 2,8 29,0 0,0
09-05-2019 19,1     22,5     26,9 7,8 51 71 91 1.013 1.014 1.016 S 3,0 27,4 0,0
08-05-2019 16,7     20,9     25,6 8,9 50 78 91 1.011 1.014 1.017 S 2,1 24,1 0,0
07-05-2019 17,5     19,1     21,4 3,9 71 82 89 1.016 1.018 1.021 SSO 2,5 24,1 0,0
06-05-2019 16,1     18,3     22,6 6,5 67 80 88 1.018 1.019 1.021 SE 0,7 14,5 0,0
05-05-2019 14,7     17,7     21,1 6,4 53 72 88 1.013 1.016 1.019 SSE 2,1 25,7 0,0
04-05-2019 13,8     17,2     20,0 6,2 56 75 85 1.013 1.014 1.016 SSE 4,6 33,8 0,0
03-05-2019 14,8     17,3     20,1 5,3 67 76 83 1.010 1.013 1.016 E 4,9 35,4 0,0
02-05-2019 14,8     17,7     19,9 5,1 61 75 85 1.014 1.015 1.017 ENE 7,9 35,4 0,0
01-05-2019 14,8     17,5     20,6 5,8 69 80 88 1.014 1.016 1.018 E 2,8 22,5 0,0
30-04-2019 14,2     17,6     21,5 7,3 69 80 91 1.017 1.019 1.020 ESE 0,8 16,1 0,0
29-04-2019 14,4     17,1     19,9 5,5 67 79 84 1.019 1.020 1.022 E 1,7 19,3 0,0
28-04-2019 13,6     17,7     22,7 9,1 40 70 89 1.021 1.024 1.027 ESE 0,6 12,9 0,0
27-04-2019 14,1     17,6     21,7 7,6 57 74 88 1.025 1.027 1.028 SE 0,7 14,5 0,0
26-04-2019 14,4     17,7     23,0 8,6 37 61 80 1.020 1.023 1.027 S 3,7 27,4 0,0
25-04-2019 14,6     18,3     24,3 9,7 50 73 87 1.013 1.014 1.020 SSE 3,1 32,2 0,0
24-04-2019 11,1     15,8     19,3 8,2 48 67 82 1.007 1.011 1.014 SSO 5,9 43,5 0,0
23-04-2019 13,8     16,6     20,4 6,6 60 76 89 1.000 1.002 1.007 S 4,4 38,6 0,2
22-04-2019 12,8     15,5     19,6 6,8 61 79 88 1.002 1.003 1.005 SSE 0,8 20,9 0,0
21-04-2019 13,4     14,6     16,2 2,8 79 86 94 1.005 1.009 1.014 E 3,5 35,4 20,2 0,19 1,60
20-04-2019 12,9     14,6     16,3 3,4 80 92 97 1.011 1.013 1.016 E 13,4 56,3 73,8 0,47 5,20
19-04-2019 13,0     14,3     15,9 2,9 80 89 93 1.015 1.016 1.017 SSE 2,4 29,0 33,6 0,22 3,50
18-04-2019 15,7     16,9     19,9 4,2 58 71 85 1.011 1.014 1.017 SSE 2,2 37,0 0,0
17-04-2019 15,7     16,6     18,1 2,4 73 81 88 1.014 1.018 1.021 ENE 9,8 38,6 0,0
16-04-2019 14,8     17,4     24,6 9,8 35 80 90 1.017 1.019 1.021 ESE 2,2 27,4 0,0
15-04-2019 15,7     17,7     21,3 5,6 50 77 89 1.015 1.016 1.017 ESE 1,8 22,5 0,0
14-04-2019 14,3     19,1     26,1 11,8 33 61 82 1.015 1.017 1.020 S 3,8 30,6 0,0
Últims 13 mesos disponibles
05/2019 13,8 16,6 21,3 19,4 19,9 23,0 27,9 14,1 68 75 82 1.013 1.016 1.019 SSE 3,0 35,4 0,0
04/2019 10,6 13,5 15,7 16,5 15,9 20,4 26,1 15,5 54 72 92 1.002 1.014 1.027 SSE 3,3 56,3 132,6
03/2019 8,4 11,5 14,1 14,9 14,4 19,0 25,6 17,2 56 71 88 1.013 1.024 1.032 E 2,8 46,7 21,4
02/2019 6,2 10,2 13,1 13,6 14,6 17,8 23,6 17,4 37 66 82 999 1.024 1.034 SSE 2,5 43,5 4,0
01/2019 4,9 9,1 13,4 12,6 13,1 17,6 22,6 17,7 46 63 84 1.006 1.021 1.033 SE 1,5 41,8 1,4
12/2018 8,4 11,2 15,2 14,2 11,4 18,7 23,7 15,3 55 75 85 1.011 1.027 1.032 SE 0,9 51,5 5,4
11/2018 9,8 13,7 17,1 16,3 16,3 19,5 21,6 11,8 48 74 92 1.001 1.017 1.024 SE 3,2 44,0 107,8
10/2018 10,3 17,5 22,0 20,6 16,2 24,2 28,4 18,1 43 71 85 1.001 1.016 1.026 3,0 47,0 21,6
09/2018 18,8 23,0 25,9 26,1 26,0 29,1 32,7 13,9 61 75 83 1.013 1.020 1.027 45,0 42,2
08/2018 22,7 25,1 27,8 28,1 26,9 31,0 35,4 12,7 59 74 81 1.014 1.017 1.021 32,0 3,2
07/2018 22,1 24,0 25,8 27,0 27,3 30,0 34,3 12,2 51 73 82 1.011 1.016 1.021 37,0 0,0
06/2018 15,8 20,5 23,8 23,9 23,3 27,4 30,3 14,5 60 71 81 1.010 1.016 1.022 39,0 24,4
05/2018 11,5 16,8 19,8 19,9 19,5 23,0 25,7 14,2 49 71 82 1.011 1.016 1.019 44,0 1,8
Tots els anys disponibles
2018 4,7 16,6 27,8 19,8 11,4 23,3 35,4 30,7 43 70 92 996 1.017 1.035 SE 0,4 68,0 307,2
2017 2,2 16,5 27,7 19,8 7,3 23,2 34,2 32,0 41 70 86 1.002 1.019 1.038 S 0,0 69,0 206,2
2016 5,7 16,5 26,0 19,8 13,3 23,2 37,4 31,7 35 70 88 510 1.015 1.036 61,0 242,0
2015 4,6 16,6 23,8 20,1 21,9 23,5 38,2 33,6 58 69 75 1.014 1.018 1.030 84,0 169,8
2014 5,3 17,0 26,6 20,4 12,3 23,8 35,1 29,8 32 67 90 992 1.015 1.033 58,0 228,1
2013 5,5 15,9 20,4 19,4 20,6 22,9 34,4 28,9 55 66 73 1.008 1.016 1.024 66,0 252,6
2012 312,4
2011 208,9
2010 3,2 16,0 26,9 19,2 9,7 22,3 37,7 34,5 37 66 91 253,0 282,8
2009 4,1 17,3 26,7 20,2 8,8 24,0 38,9 34,8 3,6 253,0 209,2
2008 5,4 16,2 18,9 22,6 37,9 32,5 39 71 93 1.001 1.022 1.032 5,8 253,0 334,8
2007 353,3
Temperatura (°C)
Humitat relativa (%)
Velocitat del vent i ràfega màxima (km/h)
Direcció del vent (°)
Pressió (hPa)
Precipitació (mm)
Nota sobre les dades: s'avisa a l'usuari de la provisionalitat i no oficialitat d'aquestes dades
Logo AVAMET blanc
Web allotjada a Sollutia
Llicència de Creative CommonsLa web d'AVAMET i els seus continguts estan subjectes a una llicència de
Reconeixement - No Comercial - Compartir igual
Properes estacions: Altea - Club Nàutic d'Altea (Soci), Ares del Maestrat (Ajuntament Soci),      - - - - -      Últimes estacions: Catadau - Urb. Lloma Molina (Inforatge), Ontinyent - El Pilar (Soci), Asp - Poliesportiu (Soci) - - -